Terminal Aerodrome Forecast
Issued by NWS

Home | Current Version | Previous Version | Text Only | Print | Product List | Glossary On
Versions: 1 2 3 4 5 6 7 8 9 10 11 12 13 14 15 16 17 18 19 20 21 22 23 24 25 26 27 28 29 30 31
242
FTUS46 KPQR 010533
TAFONP
TAF
KONP 010533Z 0106/0206 33006KT P6SM SCT250
     FM010700 33004KT P6SM BKN009
     FM011000 00000KT 2SM BR OVC004
     FM011300 30004KT 4SM BR OVC008
     FM011800 31009KT P6SM BKN180
     FM020100 29006KT P6SM OVC200=

USA.gov is the U.S. government's official web portal to all federal, state and local government web resources and services.